Time;durP1;ratioP1;P1;durP2;ratioP2;P2;SDS_P1;SDS_P2;PMS_P1;PMS_P2;Temp;Humidity;BMP_temperature;BMP_pressure;BME280_temperature;BME280_humidity;BME280_pressure;Samples;Min_cycle;Max_cycle;Signal;HPM_P1;HPM_P2
2023/11/23 00:00:16;;;;;;;16.85;15.55;;;2.40;1.00;;;;;;4815184;29;20191;-52
2023/11/23 00:02:42;;;;;;;16.60;15.35;;;2.40;1.00;;;;;;4825094;29;20660;-61
2023/11/23 00:05:08;;;;;;;16.77;15.40;;;2.40;1.00;;;;;;4819022;29;20198;-61
2023/11/23 00:07:35;;;;;;;16.08;14.90;;;2.40;1.00;;;;;;4821818;29;20306;-61
2023/11/23 00:10:00;;;;;;;16.35;15.05;;;2.40;1.00;;;;;;4829449;29;20198;-61
2023/11/23 00:12:26;;;;;;;16.03;14.93;;;2.40;1.00;;;;;;4816017;29;20226;-60
2023/11/23 00:14:52;;;;;;;16.63;15.40;;;2.50;1.00;;;;;;4827517;29;20466;-62
2023/11/23 00:17:18;;;;;;;15.97;14.87;;;2.60;99.90;;;;;;4820356;29;20197;-60
2023/11/23 00:19:47;;;;;;;16.00;14.80;;;2.70;99.90;;;;;;4817262;29;20241;-61
2023/11/23 00:22:13;;;;;;;15.30;14.25;;;2.70;99.90;;;;;;4827572;29;20230;-53
2023/11/23 00:24:39;;;;;;;15.60;14.50;;;2.70;99.90;;;;;;4829919;29;20223;-61
2023/11/23 00:27:04;;;;;;;15.40;14.40;;;2.80;99.90;;;;;;4828771;29;20202;-53
2023/11/23 00:29:30;;;;;;;16.53;15.30;;;2.90;99.90;;;;;;4830844;29;20193;-62
2023/11/23 00:31:57;;;;;;;15.97;14.77;;;2.90;26.70;;;;;;4822629;29;20196;-48
2023/11/23 00:34:23;;;;;;;15.65;14.65;;;2.90;1.00;;;;;;4827889;29;20491;-62
2023/11/23 00:36:49;;;;;;;15.97;14.77;;;2.90;1.00;;;;;;4817093;29;20199;-61
2023/11/23 00:39:15;;;;;;;15.63;14.60;;;2.90;1.00;;;;;;4825584;29;20522;-62
2023/11/23 00:41:40;;;;;;;15.43;14.40;;;3.00;1.00;;;;;;4822806;29;21464;-61
2023/11/23 00:44:06;;;;;;;15.73;14.67;;;3.00;1.00;;;;;;4829503;29;20445;-61
2023/11/23 00:46:35;;;;;;;16.07;14.97;;;3.00;99.90;;;;;;4824051;29;20451;-61
2023/11/23 00:49:01;;;;;;;15.80;14.73;;;3.00;1.00;;;;;;4828371;29;20250;-62
2023/11/23 00:51:27;;;;;;;15.07;14.03;;;3.10;99.90;;;;;;4826619;29;20212;-61
2023/11/23 00:53:52;;;;;;;16.10;14.93;;;3.10;1.00;;;;;;4828611;29;20489;-62
2023/11/23 00:56:18;;;;;;;14.90;14.00;;;3.20;1.00;;;;;;4826093;29;20474;-54
2023/11/23 00:58:46;;;;;;;14.57;13.57;;;3.10;99.90;;;;;;4818367;29;20206;-63
2023/11/23 01:01:15;;;;;;;14.73;13.73;;;3.20;1.00;;;;;;4820148;29;20663;-55
2023/11/23 01:03:41;;;;;;;14.57;13.68;;;3.10;99.90;;;;;;4816113;29;20781;-61
2023/11/23 01:06:07;;;;;;;14.50;13.50;;;3.20;99.90;;;;;;4819325;29;20202;-62
2023/11/23 01:08:33;;;;;;;15.18;14.15;;;3.20;1.00;;;;;;4820842;29;20207;-53
2023/11/23 01:11:00;;;;;;;14.23;13.33;;;3.30;99.90;;;;;;4814783;29;20750;-61
2023/11/23 01:13:26;;;;;;;15.40;14.35;;;3.30;99.90;;;;;;4815748;29;20291;-51
2023/11/23 01:15:52;;;;;;;16.13;15.03;;;3.40;1.00;;;;;;4816741;29;20203;-61
2023/11/23 01:18:17;;;;;;;14.63;13.82;;;3.40;1.00;;;;;;4813285;29;20249;-61
2023/11/23 01:20:43;;;;;;;14.83;13.87;;;3.40;99.90;;;;;;4815199;29;20278;-62
2023/11/23 01:23:09;;;;;;;14.10;13.30;;;3.50;71.20;;;;;;4817918;29;20197;-63
2023/11/23 01:25:35;;;;;;;14.82;13.93;;;3.50;99.90;;;;;;4824901;29;20199;-62
2023/11/23 01:28:01;;;;;;;15.37;14.10;;;3.50;99.90;;;;;;4822375;29;20192;-62
2023/11/23 01:30:26;;;;;;;14.53;13.63;;;3.50;1.00;;;;;;4829231;29;20206;-62
2023/11/23 01:32:52;;;;;;;15.83;14.60;;;3.60;99.90;;;;;;4819608;29;20455;-50
2023/11/23 01:35:20;;;;;;;15.10;14.10;;;3.70;99.90;;;;;;4818407;29;20192;-48
2023/11/23 01:37:46;;;;;;;14.73;13.82;;;3.60;99.90;;;;;;4824652;29;20188;-58
2023/11/23 01:40:12;;;;;;;14.85;13.88;;;3.60;99.90;;;;;;4820627;29;20616;-52
2023/11/23 01:42:38;;;;;;;14.20;13.40;;;3.70;99.90;;;;;;4823060;29;20235;-61
2023/11/23 01:45:04;;;;;;;14.03;13.23;;;3.70;99.90;;;;;;4828778;29;20447;-60
2023/11/23 01:47:32;;;;;;;14.43;13.60;;;3.70;99.90;;;;;;4827612;29;20727;-59
2023/11/23 01:50:02;;;;;;;14.20;13.40;;;3.70;99.90;;;;;;4828690;29;20377;-61
2023/11/23 01:52:29;;;;;;;14.63;13.73;;;3.70;99.90;;;;;;4812695;29;20705;-56
2023/11/23 01:54:56;;;;;;;14.68;13.73;;;3.70;99.90;;;;;;4828721;29;20544;-61
2023/11/23 01:57:22;;;;;;;14.95;14.00;;;3.70;99.90;;;;;;4828586;29;20185;-55
2023/11/23 01:59:49;;;;;;;14.23;13.10;;;3.70;99.90;;;;;;4828284;29;20251;-61
2023/11/23 02:02:15;;;;;;;14.10;13.20;;;3.80;99.90;;;;;;4829273;29;20273;-60
2023/11/23 02:04:41;;;;;;;14.10;13.10;;;3.90;99.90;;;;;;4828080;29;20690;-47
2023/11/23 02:07:08;;;;;;;13.50;12.60;;;3.90;46.50;;;;;;4827404;29;20453;-56
2023/11/23 02:09:34;;;;;;;13.77;12.98;;;3.90;1.00;;;;;;4827925;29;20477;-59
2023/11/23 02:12:01;;;;;;;13.60;12.90;;;3.90;1.00;;;;;;4829013;29;20301;-62
2023/11/23 02:14:30;;;;;;;13.70;12.90;;;3.90;1.00;;;;;;4828297;29;20220;-63
2023/11/23 02:16:56;;;;;;;14.02;13.32;;;3.90;1.00;;;;;;4826848;29;20220;-61
2023/11/23 02:19:22;;;;;;;13.00;12.30;;;3.90;1.00;;;;;;4825772;29;20334;-52
2023/11/23 02:21:48;;;;;;;13.40;12.70;;;3.80;1.00;;;;;;4827949;29;20204;-53
2023/11/23 02:24:13;;;;;;;14.13;13.23;;;3.80;1.00;;;;;;4828256;29;20203;-61
2023/11/23 02:26:39;;;;;;;13.70;12.90;;;3.80;1.00;;;;;;4828326;29;20658;-61
2023/11/23 02:29:05;;;;;;;14.70;13.80;;;3.90;1.00;;;;;;4827351;29;20224;-59
2023/11/23 02:31:32;;;;;;;13.63;12.83;;;3.90;1.00;;;;;;4828392;29;20251;-53
2023/11/23 02:34:00;;;;;;;13.82;13.13;;;3.90;1.00;;;;;;4825938;29;20377;-50
2023/11/23 02:36:25;;;;;;;13.40;12.50;;;4.00;1.00;;;;;;4825539;29;20356;-61
2023/11/23 02:38:51;;;;;;;14.67;13.87;;;4.00;1.00;;;;;;4827450;29;20640;-59
2023/11/23 02:41:16;;;;;;;13.50;12.80;;;4.00;1.00;;;;;;4826020;29;20344;-45
2023/11/23 02:43:43;;;;;;;13.83;13.00;;;4.10;1.00;;;;;;4817239;29;20246;-61
2023/11/23 02:46:08;;;;;;;14.30;13.30;;;4.10;1.00;;;;;;4814567;29;20200;-62
2023/11/23 02:48:35;;;;;;;13.55;12.82;;;4.20;1.00;;;;;;4810664;29;20558;-61
2023/11/23 02:51:01;;;;;;;13.90;13.10;;;4.20;1.00;;;;;;4812795;29;20194;-52
2023/11/23 02:53:42;;;;;;;14.73;13.83;;;4.20;1.00;;;;;;4821101;29;20273;-61
2023/11/23 02:56:09;;;;;;;14.90;13.90;;;4.20;1.00;;;;;;4824264;29;20177;-61
2023/11/23 02:58:35;;;;;;;13.18;12.43;;;4.20;1.00;;;;;;4819051;29;20656;-61
2023/11/23 03:01:01;;;;;;;13.47;12.67;;;4.30;1.00;;;;;;4819542;29;20189;-49
2023/11/23 03:03:26;;;;;;;14.23;13.43;;;4.20;75.70;;;;;;4823928;29;20251;-61
2023/11/23 03:05:52;;;;;;;14.10;13.30;;;4.30;1.00;;;;;;4820734;29;20196;-62
2023/11/23 03:08:18;;;;;;;14.00;13.10;;;4.40;1.00;;;;;;4826479;29;20192;-61
2023/11/23 03:10:44;;;;;;;14.80;13.90;;;4.40;1.00;;;;;;4818401;29;20217;-61
2023/11/23 03:13:10;;;;;;;13.95;13.13;;;4.40;1.00;;;;;;4822746;29;20281;-62
2023/11/23 03:15:36;;;;;;;14.00;13.20;;;4.40;1.00;;;;;;4813593;29;20677;-61
2023/11/23 03:18:02;;;;;;;14.13;13.33;;;4.40;1.00;;;;;;4815971;29;20476;-50
2023/11/23 03:20:28;;;;;;;13.70;13.00;;;4.40;1.00;;;;;;4817039;29;20997;-61
2023/11/23 03:22:53;;;;;;;13.67;12.87;;;4.40;1.00;;;;;;4818184;29;20192;-61
2023/11/23 03:25:19;;;;;;;13.60;12.80;;;4.50;1.00;;;;;;4806379;29;20189;-54
2023/11/23 03:27:44;;;;;;;13.40;12.50;;;4.50;1.00;;;;;;4820700;29;20281;-61
2023/11/23 03:30:10;;;;;;;13.03;12.33;;;4.60;1.00;;;;;;4823052;29;20671;-62
2023/11/23 03:32:36;;;;;;;13.13;12.32;;;4.60;1.00;;;;;;4804192;29;20200;-60
2023/11/23 03:35:03;;;;;;;12.87;12.17;;;4.70;1.00;;;;;;4812750;29;20243;-62
2023/11/23 03:37:29;;;;;;;12.88;12.18;;;4.70;1.00;;;;;;4815959;29;20441;-43
2023/11/23 03:39:55;;;;;;;13.77;13.03;;;4.80;1.00;;;;;;4811719;29;20249;-61
2023/11/23 03:42:21;;;;;;;14.63;13.55;;;4.90;1.00;;;;;;4826766;29;20243;-57
2023/11/23 03:44:47;;;;;;;13.97;13.13;;;4.90;1.00;;;;;;4820122;29;20237;-61
2023/11/23 03:47:12;;;;;;;13.80;12.90;;;4.90;1.00;;;;;;4822338;29;20504;-50
2023/11/23 03:49:39;;;;;;;14.47;13.77;;;4.90;1.00;;;;;;4814147;29;20196;-50
2023/11/23 03:52:04;;;;;;;14.48;13.52;;;4.90;1.00;;;;;;4824883;29;20196;-61
2023/11/23 03:54:30;;;;;;;13.33;12.63;;;5.00;1.00;;;;;;4818241;29;20697;-61
2023/11/23 03:56:57;;;;;;;14.40;13.60;;;5.00;30.90;;;;;;4826827;29;20431;-63
2023/11/23 03:59:23;;;;;;;13.38;12.68;;;5.00;1.00;;;;;;4817037;29;20192;-62
2023/11/23 04:01:49;;;;;;;14.27;13.47;;;5.10;99.90;;;;;;4818970;29;20201;-61
2023/11/23 04:04:14;;;;;;;13.43;12.53;;;5.00;99.90;;;;;;4827384;29;20261;-62
2023/11/23 04:06:40;;;;;;;13.40;12.60;;;5.10;99.90;;;;;;4814257;29;20188;-61
2023/11/23 04:09:08;;;;;;;12.70;12.00;;;5.20;99.90;;;;;;4812159;29;20194;-62
2023/11/23 04:11:34;;;;;;;13.40;12.70;;;5.20;99.90;;;;;;4820769;29;20468;-60
2023/11/23 04:14:00;;;;;;;14.17;13.10;;;5.30;99.90;;;;;;4825926;29;20558;-61
2023/11/23 04:16:25;;;;;;;13.73;12.90;;;5.30;99.90;;;;;;4826067;29;20465;-62
2023/11/23 04:18:51;;;;;;;13.97;12.80;;;5.30;99.90;;;;;;4816373;29;20193;-61
2023/11/23 04:21:17;;;;;;;14.40;13.40;;;5.30;99.90;;;;;;4815798;29;20561;-61
2023/11/23 04:23:42;;;;;;;13.57;12.77;;;5.30;99.90;;;;;;4827393;29;20197;-61
2023/11/23 04:26:08;;;;;;;14.00;13.23;;;5.40;97.00;;;;;;4828631;29;20249;-53
2023/11/23 04:28:35;;;;;;;13.67;12.87;;;5.30;16.80;;;;;;4830384;29;20193;-60
2023/11/23 04:31:03;;;;;;;13.13;12.27;;;5.40;77.70;;;;;;4816905;29;20196;-50
2023/11/23 04:33:32;;;;;;;13.77;12.98;;;5.40;49.50;;;;;;4813940;29;20210;-62
2023/11/23 04:35:57;;;;;;;13.20;12.30;;;5.50;47.40;;;;;;4819649;29;20190;-52
2023/11/23 04:38:24;;;;;;;13.13;12.43;;;5.60;1.00;;;;;;4830062;29;20539;-60
2023/11/23 04:40:50;;;;;;;13.40;12.50;;;5.70;1.00;;;;;;4824923;29;20442;-60
2023/11/23 04:43:16;;;;;;;13.20;12.50;;;5.80;1.00;;;;;;4824686;29;20251;-62
2023/11/23 04:45:42;;;;;;;13.27;12.57;;;5.70;1.00;;;;;;4829481;29;20441;-60
2023/11/23 04:48:08;;;;;;;13.63;12.73;;;5.70;1.00;;;;;;4830136;29;20185;-61
2023/11/23 04:50:34;;;;;;;13.33;12.50;;;5.80;1.00;;;;;;4830306;29;20553;-61
2023/11/23 04:53:00;;;;;;;13.63;12.80;;;5.90;1.00;;;;;;4828580;29;20225;-49
2023/11/23 04:55:28;;;;;;;12.90;12.10;;;5.90;1.00;;;;;;4827783;29;20329;-60
2023/11/23 04:57:53;;;;;;;13.00;12.30;;;5.90;1.00;;;;;;4828649;29;20453;-61
2023/11/23 05:00:24;;;;;;;12.13;11.53;;;5.90;1.00;;;;;;4829307;29;20185;-62
2023/11/23 05:02:50;;;;;;;13.55;12.52;;;5.90;1.00;;;;;;4829993;29;20492;-52
2023/11/23 05:05:16;;;;;;;12.40;11.70;;;6.00;1.00;;;;;;4827753;29;20689;-61
2023/11/23 05:07:42;;;;;;;11.80;11.20;;;5.90;8.40;;;;;;4830645;29;20185;-62
2023/11/23 05:10:08;;;;;;;12.23;11.53;;;6.00;1.00;;;;;;4828623;29;20267;-46
2023/11/23 05:12:34;;;;;;;12.90;12.10;;;6.00;4.80;;;;;;4828637;29;20197;-62
2023/11/23 05:15:00;;;;;;;11.40;10.70;;;6.20;4.90;;;;;;4828125;29;20220;-51
2023/11/23 05:17:26;;;;;;;12.83;12.07;;;6.20;1.00;;;;;;4829236;29;21250;-61
2023/11/23 05:19:51;;;;;;;12.10;11.50;;;6.30;1.00;;;;;;4825967;29;20192;-63
2023/11/23 05:22:17;;;;;;;12.83;12.00;;;6.30;1.00;;;;;;4828973;29;20189;-62
2023/11/23 05:24:42;;;;;;;12.30;11.60;;;6.40;1.00;;;;;;4828770;29;20255;-61
2023/11/23 05:27:08;;;;;;;13.00;12.30;;;6.40;3.70;;;;;;4830822;29;20196;-61
2023/11/23 05:29:34;;;;;;;12.30;11.60;;;6.40;2.80;;;;;;4828538;29;20202;-61
2023/11/23 05:31:59;;;;;;;13.13;12.33;;;6.40;22.80;;;;;;4829439;29;20668;-61
2023/11/23 05:34:26;;;;;;;13.00;12.30;;;6.50;41.20;;;;;;4830085;29;20265;-61
2023/11/23 05:36:51;;;;;;;13.43;12.73;;;6.50;15.60;;;;;;4830595;29;20189;-61
2023/11/23 05:39:17;;;;;;;12.60;12.00;;;6.50;16.30;;;;;;4829095;29;20192;-62
2023/11/23 05:41:43;;;;;;;13.40;12.50;;;6.60;5.50;;;;;;4826011;29;20233;-62
2023/11/23 05:44:09;;;;;;;11.67;10.97;;;6.60;3.40;;;;;;4818709;29;20529;-61
2023/11/23 05:46:34;;;;;;;14.20;13.23;;;6.60;21.60;;;;;;4827763;29;20204;-63
2023/11/23 05:49:00;;;;;;;12.70;12.10;;;6.60;2.70;;;;;;4813926;29;20444;-53
2023/11/23 05:51:27;;;;;;;13.03;12.33;;;6.60;9.90;;;;;;4810329;29;20221;-56
2023/11/23 05:53:53;;;;;;;13.38;12.57;;;6.70;16.00;;;;;;4821663;29;20209;-62
2023/11/23 05:56:19;;;;;;;13.07;12.33;;;6.80;18.60;;;;;;4827219;29;20538;-63
2023/11/23 05:58:44;;;;;;;12.90;12.10;;;6.70;3.30;;;;;;4798886;29;20280;-62
2023/11/23 06:01:10;;;;;;;12.13;11.50;;;6.80;11.50;;;;;;4822739;29;20312;-62
2023/11/23 06:03:37;;;;;;;12.50;11.70;;;6.80;33.60;;;;;;4821370;29;20442;-53
2023/11/23 06:06:03;;;;;;;12.90;12.10;;;6.80;6.00;;;;;;4829160;29;20444;-62
2023/11/23 06:08:29;;;;;;;13.80;12.85;;;6.80;22.70;;;;;;4817002;29;20198;-61
2023/11/23 06:10:54;;;;;;;12.47;11.57;;;6.80;26.20;;;;;;4826752;29;20201;-61
2023/11/23 06:13:20;;;;;;;12.00;11.20;;;6.90;5.40;;;;;;4823835;29;20672;-50
2023/11/23 06:15:46;;;;;;;12.40;11.70;;;6.90;1.00;;;;;;4828692;29;20193;-60
2023/11/23 06:18:11;;;;;;;12.20;11.50;;;6.80;1.00;;;;;;4818906;29;20193;-50
2023/11/23 06:20:37;;;;;;;13.20;12.50;;;6.90;1.00;;;;;;4820951;29;20645;-63
2023/11/23 06:23:02;;;;;;;12.80;12.13;;;6.90;1.00;;;;;;4823785;29;20608;-62
2023/11/23 06:25:28;;;;;;;12.63;11.93;;;6.90;1.00;;;;;;4832802;29;20185;-54
2023/11/23 06:27:54;;;;;;;12.43;11.73;;;6.90;4.90;;;;;;4822925;29;20189;-62
2023/11/23 06:30:19;;;;;;;12.10;11.40;;;6.80;5.90;;;;;;4823861;29;20200;-53
2023/11/23 06:32:45;;;;;;;13.03;12.33;;;6.80;11.60;;;;;;4823518;29;20284;-62
2023/11/23 06:35:11;;;;;;;14.00;13.10;;;6.80;7.40;;;;;;4803333;29;20212;-62
2023/11/23 06:37:36;;;;;;;12.93;12.23;;;6.80;28.10;;;;;;4818475;29;20254;-62
2023/11/23 06:40:03;;;;;;;13.20;12.30;;;6.80;35.30;;;;;;4817365;29;20731;-62
2023/11/23 06:42:31;;;;;;;13.10;12.20;;;6.80;51.30;;;;;;4818623;29;20743;-60
2023/11/23 06:44:59;;;;;;;13.30;12.50;;;6.90;59.20;;;;;;4807204;29;20750;-60
2023/11/23 06:47:25;;;;;;;13.50;12.80;;;6.90;84.10;;;;;;4828369;29;20192;-60
2023/11/23 06:49:50;;;;;;;12.97;12.17;;;6.90;95.50;;;;;;4813187;29;20450;-61
2023/11/23 06:52:16;;;;;;;12.77;12.07;;;6.90;73.20;;;;;;4822516;29;20293;-61
2023/11/23 06:54:41;;;;;;;12.80;11.90;;;6.80;71.00;;;;;;4822100;29;20821;-62
2023/11/23 06:57:07;;;;;;;14.23;13.27;;;6.90;99.90;;;;;;4822192;29;20193;-62
2023/11/23 06:59:35;;;;;;;12.98;12.18;;;6.90;99.90;;;;;;4829633;29;20202;-57
2023/11/23 07:02:02;;;;;;;12.40;11.77;;;7.00;99.90;;;;;;4822040;29;20584;-62
2023/11/23 07:04:27;;;;;;;13.60;12.80;;;6.90;99.90;;;;;;4832265;29;20786;-61
2023/11/23 07:06:53;;;;;;;15.40;14.30;;;6.90;99.90;;;;;;4822372;29;20431;-61
2023/11/23 07:09:18;;;;;;;13.90;13.00;;;6.90;99.90;;;;;;4833364;29;20556;-61
2023/11/23 07:11:44;;;;;;;15.30;14.20;;;6.90;99.90;;;;;;4833729;29;20192;-60
2023/11/23 07:14:10;;;;;;;13.47;12.30;;;6.80;99.90;;;;;;4820919;29;20259;-60
2023/11/23 07:16:36;;;;;;;13.83;12.93;;;6.80;1.00;;;;;;4822168;29;20420;-62
2023/11/23 07:19:02;;;;;;;13.50;12.60;;;6.80;1.00;;;;;;4824421;29;20455;-61
2023/11/23 07:21:28;;;;;;;12.87;12.07;;;6.90;1.00;;;;;;4822142;29;20178;-61
2023/11/23 07:23:54;;;;;;;13.77;12.87;;;6.80;1.00;;;;;;4822744;29;20974;-61
2023/11/23 07:26:20;;;;;;;13.60;12.70;;;6.90;1.00;;;;;;4822048;29;20914;-61
2023/11/23 07:28:46;;;;;;;12.38;11.55;;;6.90;1.00;;;;;;4822255;29;20182;-61
2023/11/23 07:31:12;;;;;;;13.83;12.93;;;6.90;53.40;;;;;;4822292;29;20750;-38
2023/11/23 07:33:38;;;;;;;12.30;11.50;;;7.00;99.90;;;;;;4821520;29;20474;-38
2023/11/23 07:36:05;;;;;;;14.27;13.17;;;7.00;99.90;;;;;;4822275;29;20193;-38
2023/11/23 07:38:32;;;;;;;26.93;21.80;;;7.00;99.90;;;;;;4823789;29;20196;-39
2023/11/23 07:40:58;;;;;;;13.73;12.73;;;7.10;1.00;;;;;;4805683;29;20487;-38
2023/11/23 07:43:24;;;;;;;13.07;12.20;;;7.10;99.90;;;;;;4838887;29;20474;-38
2023/11/23 07:45:50;;;;;;;13.93;12.83;;;7.10;99.90;;;;;;4840365;29;21011;-38
2023/11/23 07:48:16;;;;;;;15.87;14.57;;;7.20;99.90;;;;;;4841627;29;20875;-38
2023/11/23 07:50:43;;;;;;;12.90;12.20;;;7.10;99.90;;;;;;4840452;29;20425;-37
2023/11/23 07:53:09;;;;;;;12.45;11.60;;;7.10;99.90;;;;;;4840845;29;20190;-38
2023/11/23 07:55:35;;;;;;;13.60;12.70;;;7.00;99.90;;;;;;4845883;29;20212;-38
2023/11/23 07:58:00;;;;;;;13.70;12.70;;;7.10;99.90;;;;;;4836421;29;20460;-37
2023/11/23 08:00:27;;;;;;;13.13;12.30;;;7.30;99.90;;;;;;4838975;29;20478;-38
2023/11/23 08:02:54;;;;;;;14.63;13.63;;;7.20;99.90;;;;;;4846202;29;20276;-38
2023/11/23 08:05:20;;;;;;;13.20;12.30;;;7.20;99.90;;;;;;4837123;29;20658;-37
2023/11/23 08:07:47;;;;;;;13.50;12.70;;;7.20;99.90;;;;;;4838713;29;20855;-37
2023/11/23 08:10:15;;;;;;;13.57;12.67;;;7.30;99.90;;;;;;4836270;29;20481;-38
2023/11/23 08:12:44;;;;;;;14.77;13.67;;;7.40;99.90;;;;;;4840472;29;20449;-38
2023/11/23 08:15:10;;;;;;;13.50;12.60;;;7.40;99.90;;;;;;4849655;29;20492;-38
2023/11/23 08:17:36;;;;;;;13.83;12.93;;;7.50;99.90;;;;;;4841072;29;20428;-37
2023/11/23 08:20:07;;;;;;;12.83;12.10;;;7.50;1.00;;;;;;4839471;29;20602;-37
2023/11/23 08:22:34;;;;;;;12.47;11.67;;;7.60;1.00;;;;;;4837644;29;20434;-37
2023/11/23 08:25:00;;;;;;;13.00;12.07;;;7.50;1.00;;;;;;4841860;29;20446;-38
2023/11/23 08:27:26;;;;;;;13.70;12.77;;;7.40;1.00;;;;;;4833049;29;20443;-37
2023/11/23 08:29:52;;;;;;;13.17;12.37;;;7.40;1.00;;;;;;4847605;29;21154;-37
2023/11/23 08:32:18;;;;;;;13.60;12.43;;;7.30;1.00;;;;;;4837533;29;20193;-37
2023/11/23 08:34:44;;;;;;;13.37;12.47;;;7.40;55.50;;;;;;4832644;29;20209;-39
2023/11/23 08:37:10;;;;;;;13.57;12.70;;;7.40;82.10;;;;;;4839542;29;20426;-38
2023/11/23 08:39:35;;;;;;;12.50;11.70;;;7.50;99.90;;;;;;4841887;29;20238;-38
2023/11/23 08:42:01;;;;;;;12.20;11.50;;;7.60;99.90;;;;;;4837015;29;20225;-38
2023/11/23 08:44:26;;;;;;;13.20;12.23;;;7.70;59.30;;;;;;4842653;29;20196;-38
2023/11/23 08:46:52;;;;;;;12.70;11.90;;;7.70;99.90;;;;;;4821342;29;20197;-38
2023/11/23 08:49:19;;;;;;;12.50;11.70;;;7.80;23.60;;;;;;4843769;29;20189;-38
2023/11/23 08:51:44;;;;;;;12.53;11.77;;;7.80;99.90;;;;;;4838344;29;20236;-37
2023/11/23 08:54:10;;;;;;;12.20;11.47;;;7.80;92.30;;;;;;4841933;29;20472;-38
2023/11/23 08:56:36;;;;;;;12.27;11.57;;;7.80;14.30;;;;;;4838571;29;20193;-37
2023/11/23 08:59:02;;;;;;;11.87;11.20;;;8.00;1.00;;;;;;4831037;29;20941;-38
2023/11/23 09:01:28;;;;;;;13.03;12.23;;;8.00;1.00;;;;;;4833300;29;20197;-40
2023/11/23 09:03:57;;;;;;;12.30;11.57;;;8.10;1.00;;;;;;4841160;29;20783;-38
2023/11/23 09:06:22;;;;;;;12.63;11.93;;;8.10;1.00;;;;;;4848495;29;20438;-38
2023/11/23 09:08:48;;;;;;;12.47;11.70;;;8.10;1.00;;;;;;4838765;29;20425;-39
2023/11/23 09:11:15;;;;;;;12.30;11.60;;;8.10;1.00;;;;;;4846499;29;20208;-37
2023/11/23 09:13:41;;;;;;;11.03;10.33;;;8.20;1.00;;;;;;4838274;29;20469;-37
2023/11/23 09:16:07;;;;;;;12.67;11.87;;;8.30;1.00;;;;;;4850775;29;21221;-37
2023/11/23 09:18:33;;;;;;;11.90;11.33;;;8.30;1.00;;;;;;4846878;29;20189;-37
2023/11/23 09:20:59;;;;;;;13.30;12.50;;;8.30;1.00;;;;;;4829180;29;20438;-37
2023/11/23 09:23:27;;;;;;;12.87;12.17;;;8.30;1.00;;;;;;4838512;29;20461;-37
2023/11/23 09:25:52;;;;;;;12.90;11.93;;;8.30;1.00;;;;;;4849545;29;20506;-37
2023/11/23 09:28:19;;;;;;;12.20;11.50;;;8.30;1.00;;;;;;4856165;29;20633;-38
2023/11/23 09:30:44;;;;;;;13.33;12.53;;;8.40;1.00;;;;;;4854983;29;20180;-38
2023/11/23 09:33:10;;;;;;;11.63;10.93;;;8.40;1.00;;;;;;4856665;29;20410;-38
2023/11/23 09:35:42;;;;;;;12.47;11.77;;;8.50;1.00;;;;;;4848913;29;20217;-38
2023/11/23 09:38:08;;;;;;;11.80;11.00;;;8.50;1.00;;;;;;4837707;29;20398;-37
2023/11/23 09:40:33;;;;;;;12.10;11.50;;;8.50;1.00;;;;;;4831494;29;20858;-39
2023/11/23 09:42:59;;;;;;;12.63;11.93;;;8.60;1.00;;;;;;4819004;29;20482;-37
2023/11/23 09:45:26;;;;;;;12.20;11.60;;;8.60;1.00;;;;;;4838424;29;20304;-37
2023/11/23 09:47:52;;;;;;;10.97;10.43;;;8.70;1.00;;;;;;4837968;29;20757;-37
2023/11/23 09:50:18;;;;;;;11.57;10.90;;;8.70;1.00;;;;;;4835046;29;20427;-37
2023/11/23 09:52:46;;;;;;;11.40;10.80;;;8.80;1.00;;;;;;4825634;29;20521;-37
2023/11/23 09:55:16;;;;;;;11.37;10.77;;;8.70;1.00;;;;;;4855041;29;20540;-37
2023/11/23 09:57:43;;;;;;;11.17;10.67;;;8.80;1.00;;;;;;4837836;29;20483;-37
2023/11/23 10:00:13;;;;;;;11.20;10.60;;;8.80;1.00;;;;;;4838116;29;20434;-38
2023/11/23 10:02:42;;;;;;;12.33;11.73;;;8.80;1.00;;;;;;4847793;29;20449;-37
2023/11/23 10:05:09;;;;;;;12.10;11.50;;;8.80;1.00;;;;;;4856676;29;20707;-37
2023/11/23 10:07:35;;;;;;;11.83;11.23;;;8.80;1.00;;;;;;4847427;29;20736;-38
2023/11/23 10:10:03;;;;;;;11.97;11.33;;;8.90;1.00;;;;;;4841567;29;20549;-38
2023/11/23 10:12:29;;;;;;;12.53;11.80;;;8.90;1.00;;;;;;4837775;29;20969;-38
2023/11/23 10:14:55;;;;;;;11.10;10.50;;;8.90;1.00;;;;;;4837994;29;20461;-38
2023/11/23 10:20:58;;;;;;;12.37;11.67;;;8.90;1.00;;;;;;4837793;29;20329;-38
2023/11/23 10:23:23;;;;;;;12.00;11.27;;;8.90;1.00;;;;;;4843166;29;20512;-38
2023/11/23 10:25:49;;;;;;;12.00;11.30;;;9.00;1.00;;;;;;4840124;29;20569;-38
2023/11/23 10:28:15;;;;;;;12.37;11.67;;;9.10;1.00;;;;;;4843217;29;20283;-38
2023/11/23 10:30:41;;;;;;;11.63;11.03;;;9.10;1.00;;;;;;4838558;29;20676;-37
2023/11/23 10:33:10;;;;;;;12.03;11.43;;;9.00;1.00;;;;;;4851840;29;20200;-38
2023/11/23 10:35:50;;;;;;;12.00;11.40;;;9.00;1.00;;;;;;4837562;29;20422;-38
2023/11/23 10:38:16;;;;;;;11.70;11.10;;;9.00;1.00;;;;;;4840255;29;20444;-38
2023/11/23 10:40:42;;;;;;;12.50;11.80;;;9.10;1.00;;;;;;4837655;29;20558;-39
2023/11/23 10:43:12;;;;;;;11.20;10.60;;;9.20;1.00;;;;;;4840454;29;20474;-37
2023/11/23 10:45:40;;;;;;;12.00;11.40;;;9.10;1.00;;;;;;4819964;29;20193;-37
2023/11/23 10:48:06;;;;;;;11.43;10.80;;;9.20;1.00;;;;;;4831638;29;20439;-38
2023/11/23 10:50:32;;;;;;;11.97;11.27;;;9.20;1.00;;;;;;4820267;29;20457;-38
2023/11/23 10:53:01;;;;;;;11.87;11.20;;;9.20;1.00;;;;;;4809307;29;21171;-38
2023/11/23 10:55:26;;;;;;;11.80;11.10;;;9.20;1.00;;;;;;4837485;29;20423;-37
2023/11/23 10:58:04;;;;;;;11.30;10.67;;;9.30;1.00;;;;;;4834710;29;20458;-38
2023/11/23 11:00:30;;;;;;;12.40;11.70;;;9.30;1.00;;;;;;4837380;29;20181;-37
2023/11/23 11:03:00;;;;;;;11.37;10.77;;;9.30;1.00;;;;;;4837204;29;20422;-37
2023/11/23 11:05:35;;;;;;;11.03;10.37;;;9.30;1.00;;;;;;4837281;29;20755;-38
2023/11/23 11:08:07;;;;;;;11.27;10.67;;;9.40;1.00;;;;;;4836558;29;20871;-39
2023/11/23 11:10:42;;;;;;;11.10;10.43;;;9.50;1.00;;;;;;4829795;29;20450;-38
2023/11/23 11:13:12;;;;;;;11.73;11.03;;;9.50;1.00;;;;;;4840466;29;20425;-37
2023/11/23 11:16:03;;;;;;;12.37;11.77;;;9.60;99.90;;;;;;4840991;29;20421;-38
2023/11/23 11:18:29;;;;;;;11.80;11.20;;;9.60;99.90;;;;;;4832493;29;20442;-38
2023/11/23 11:21:09;;;;;;;12.50;11.90;;;9.60;99.90;;;;;;4840832;29;20434;-37
2023/11/23 11:23:46;;;;;;;11.90;11.20;;;9.70;99.90;;;;;;4840423;29;20493;-39
2023/11/23 11:26:17;;;;;;;12.00;11.40;;;9.70;99.90;;;;;;4840640;29;20422;-39
2023/11/23 11:28:52;;;;;;;11.47;10.87;;;9.70;99.90;;;;;;4839079;29;20927;-39
2023/11/23 11:31:27;;;;;;;13.30;12.40;;;9.70;99.90;;;;;;4839621;29;20446;-38
2023/11/23 11:33:52;;;;;;;10.93;10.33;;;9.70;99.90;;;;;;4836268;29;21059;-38
2023/11/23 11:36:18;;;;;;;11.90;11.10;;;9.80;99.90;;;;;;4840492;29;20544;-38
2023/11/23 11:38:54;;;;;;;11.80;11.20;;;9.70;99.90;;;;;;4840117;29;20177;-38
2023/11/23 11:41:21;;;;;;;12.07;11.37;;;9.70;99.90;;;;;;4839642;29;20268;-39
2023/11/23 11:43:47;;;;;;;12.37;11.67;;;9.70;99.90;;;;;;4851226;29;20460;-39
2023/11/23 11:46:13;;;;;;;12.47;11.77;;;9.80;99.90;;;;;;4851129;29;20422;-37
2023/11/23 11:48:39;;;;;;;11.90;11.30;;;9.90;99.90;;;;;;4846984;29;20973;-38
2023/11/23 11:51:05;;;;;;;12.20;11.50;;;9.90;99.90;;;;;;4839824;29;20193;-38
2023/11/23 11:53:32;;;;;;;12.60;11.90;;;9.80;99.90;;;;;;4827381;29;20494;-39
2023/11/23 11:55:58;;;;;;;12.03;11.33;;;9.70;99.90;;;;;;4845554;29;20426;-37
2023/11/23 11:58:25;;;;;;;12.43;11.73;;;9.80;99.90;;;;;;4843181;29;20430;-38
2023/11/23 12:00:51;;;;;;;12.50;11.80;;;9.80;99.90;;;;;;4840025;29;20474;-39
2023/11/23 12:03:18;;;;;;;12.40;11.70;;;9.80;99.90;;;;;;4841224;29;20427;-37
2023/11/23 12:05:45;;;;;;;13.50;12.60;;;9.70;99.90;;;;;;4843529;29;20177;-37
2023/11/23 12:08:11;;;;;;;12.53;11.83;;;9.70;99.90;;;;;;4847286;29;20477;-38
2023/11/23 12:10:41;;;;;;;12.20;11.50;;;9.60;99.90;;;;;;4843733;29;20803;-37
2023/11/23 12:13:14;;;;;;;12.47;11.77;;;9.60;99.90;;;;;;4845823;29;20802;-38
2023/11/23 12:15:46;;;;;;;13.00;12.20;;;9.60;99.90;;;;;;4841088;29;20750;-38
2023/11/23 12:18:13;;;;;;;12.67;11.97;;;9.70;99.90;;;;;;4845896;29;20444;-37
2023/11/23 12:20:39;;;;;;;11.53;10.93;;;9.70;99.90;;;;;;4840677;29;20430;-38
2023/11/23 12:23:05;;;;;;;11.10;10.50;;;9.70;99.90;;;;;;4844105;29;20422;-37
2023/11/23 12:25:35;;;;;;;12.13;11.43;;;9.70;99.90;;;;;;4850112;29;20626;-38
2023/11/23 12:28:02;;;;;;;12.37;11.57;;;9.70;99.90;;;;;;4844164;29;21024;-38
2023/11/23 12:30:29;;;;;;;11.90;11.23;;;9.80;99.90;;;;;;4840180;29;20436;-38
2023/11/23 12:32:58;;;;;;;12.13;11.43;;;9.80;99.90;;;;;;4841739;29;20430;-38
2023/11/23 12:35:24;;;;;;;11.43;10.83;;;9.70;99.90;;;;;;4847343;29;20659;-38
2023/11/23 12:37:51;;;;;;;12.40;11.70;;;9.80;99.90;;;;;;4846578;29;20525;-38
2023/11/23 12:40:17;;;;;;;12.23;11.53;;;9.80;99.90;;;;;;4839167;29;20181;-37
2023/11/23 12:42:43;;;;;;;11.23;10.63;;;9.70;99.90;;;;;;4838860;29;20470;-38